Pricetown, Pennsylvania
Current Conditions -  °F | °C
As of 6:54 AM on Thursday 27 Nov 2014 (Local Time) from KRDG Reporting Station
Overcast Overcast  
Wind Chill: 34°   Ceiling: 6000
Heat Index: 34°   Visibility: 10mi
Dew Point: 30°   Wind: 3mph
Humidity: 85%   Direction: 320°NW
Pressure: 29.99"   Gusts: NA
Location:  40.4504°N, 75.8012°W
Report Text: KRDG 271154Z AUTO 32003KT 10SM SCT033 BKN060 OVC080 01/M01 A2999 RMK AO2 SLP163 60002 70058 T00111011 10022 20011 53005
Loading
Personal Weather Stations






























Interactive Weather Map New forecast layout! Learn more

10-Day Weather Forecast

Advertisements
Track Severe Weather on mobile